TRA2LJ EKCH-EHEH
Flight info
| Callsign | TRA2LJ |
|---|---|
| Flight time | 1h 11m |
| Altitude | 36000 |
| Route | NEXEN T503 MICOS DCT NIE DCT DENOL DCT DOMEG DCT ROTEK |
| Aircraft | A321/M-SDE3FGHIRWY/LB1 |
Departure
| Time | 2026-05-06 11:38 |
|---|---|
| Airport | Copenhagen Kastrup Airport (EKCH) |
Arrival
| Time | 2026-05-06 12:50 |
|---|---|
| Airport | Eindhoven Airport (EHEH) |
| Time | Latitude | Longitude | Altitude | Speed | Heading |
|---|---|---|---|---|---|
| 2026-05-06 11:17 | 55.62523 | 12.65759 | 26 ft | 0 kts | 359° |
| 2026-05-06 11:28 | 55.62516 | 12.65759 | 24 ft | 4 kts | 359° |
| 2026-05-06 11:28 | 55.62489 | 12.65761 | 24 ft | 4 kts | 359° |
| 2026-05-06 11:28 | 55.62468 | 12.65763 | 28 ft | 4 kts | 341° |
| 2026-05-06 11:28 | 55.62449 | 12.65787 | 27 ft | 4 kts | 287° |
| 2026-05-06 11:29 | 55.62447 | 12.65830 | 28 ft | 4 kts | 269° |
| 2026-05-06 11:29 | 55.62447 | 12.65848 | 28 ft | 0 kts | 269° |
| 2026-05-06 11:31 | 55.62447 | 12.65834 | 28 ft | 4 kts | 269° |
| 2026-05-06 11:32 | 55.62446 | 12.65720 | 25 ft | 14 kts | 269° |
| 2026-05-06 11:32 | 55.62443 | 12.65535 | 24 ft | 11 kts | 268° |
| 2026-05-06 11:32 | 55.62441 | 12.65407 | 24 ft | 10 kts | 269° |
| 2026-05-06 11:32 | 55.62441 | 12.65291 | 24 ft | 9 kts | 269° |
| 2026-05-06 11:33 | 55.62405 | 12.65207 | 24 ft | 13 kts | 194° |
| 2026-05-06 11:33 | 55.62304 | 12.65205 | 25 ft | 14 kts | 181° |
| 2026-05-06 11:33 | 55.62212 | 12.65177 | 24 ft | 13 kts | 204° |
| 2026-05-06 11:33 | 55.62141 | 12.65100 | 24 ft | 11 kts | 212° |
| 2026-05-06 11:34 | 55.62072 | 12.65021 | 24 ft | 13 kts | 213° |
| 2026-05-06 11:34 | 55.61976 | 12.64909 | 25 ft | 21 kts | 213° |
| 2026-05-06 11:34 | 55.61833 | 12.64747 | 24 ft | 27 kts | 211° |
| 2026-05-06 11:34 | 55.61681 | 12.64572 | 24 ft | 24 kts | 214° |
| 2026-05-06 11:35 | 55.61544 | 12.64413 | 25 ft | 23 kts | 212° |
| 2026-05-06 11:35 | 55.61415 | 12.64265 | 25 ft | 21 kts | 213° |
| 2026-05-06 11:35 | 55.61293 | 12.64125 | 24 ft | 20 kts | 213° |
| 2026-05-06 11:35 | 55.61179 | 12.63993 | 24 ft | 19 kts | 213° |
| 2026-05-06 11:36 | 55.61073 | 12.63872 | 24 ft | 17 kts | 213° |
| 2026-05-06 11:36 | 55.60976 | 12.63759 | 24 ft | 16 kts | 213° |
| 2026-05-06 11:36 | 55.60885 | 12.63655 | 24 ft | 15 kts | 212° |
| 2026-05-06 11:36 | 55.60799 | 12.63604 | 24 ft | 12 kts | 166° |
| 2026-05-06 11:37 | 55.60741 | 12.63692 | 24 ft | 9 kts | 131° |
| 2026-05-06 11:37 | 55.60701 | 12.63773 | 24 ft | 8 kts | 130° |
| 2026-05-06 11:37 | 55.60677 | 12.63838 | 25 ft | 5 kts | 100° |
| 2026-05-06 11:37 | 55.60695 | 12.63893 | 30 ft | 8 kts | 47° |
| 2026-05-06 11:38 | 55.60740 | 12.63961 | 28 ft | 33 kts | 40° |
| 2026-05-06 11:38 | 55.61097 | 12.64514 | 23 ft | 100 kts | 41° |
| 2026-05-06 11:38 | 55.61763 | 12.65530 | 32 ft | 149 kts | 39° |
| 2026-05-06 11:38 | 55.62540 | 12.66743 | 646 ft | 144 kts | 42° |
| 2026-05-06 11:39 | 55.63041 | 12.67511 | 1152 ft | 143 kts | 43° |
| 2026-05-06 11:39 | 55.63812 | 12.68668 | 1726 ft | 150 kts | 43° |
| 2026-05-06 11:39 | 55.64618 | 12.69938 | 2230 ft | 159 kts | 45° |
| 2026-05-06 11:39 | 55.65439 | 12.71290 | 2792 ft | 163 kts | 45° |
| 2026-05-06 11:40 | 55.66303 | 12.72650 | 3342 ft | 168 kts | 44° |
| 2026-05-06 11:40 | 55.67203 | 12.73979 | 3920 ft | 171 kts | 42° |
| 2026-05-06 11:40 | 55.68151 | 12.75360 | 4311 ft | 184 kts | 41° |
| 2026-05-06 11:40 | 55.69094 | 12.77075 | 4522 ft | 207 kts | 57° |
| 2026-05-06 11:41 | 55.69745 | 12.79487 | 4843 ft | 230 kts | 76° |
| 2026-05-06 11:41 | 55.69884 | 12.82433 | 5241 ft | 251 kts | 97° |
| 2026-05-06 11:41 | 55.69327 | 12.85411 | 5981 ft | 261 kts | 118° |
| 2026-05-06 11:41 | 55.68108 | 12.87833 | 6772 ft | 270 kts | 142° |
| 2026-05-06 11:42 | 55.66395 | 12.89287 | 7556 ft | 277 kts | 159° |
| 2026-05-06 11:42 | 55.64574 | 12.90451 | 8360 ft | 281 kts | 160° |
| 2026-05-06 11:42 | 55.62672 | 12.91313 | 9136 ft | 284 kts | 175° |
| 2026-05-06 11:42 | 55.60694 | 12.91122 | 9911 ft | 287 kts | 194° |
| 2026-05-06 11:43 | 55.58796 | 12.89849 | 10331 ft | 302 kts | 212° |
| 2026-05-06 11:43 | 55.57123 | 12.87399 | 10506 ft | 324 kts | 226° |
| 2026-05-06 11:43 | 55.55514 | 12.84446 | 10773 ft | 342 kts | 226° |
| 2026-05-06 11:44 | 55.52187 | 12.78323 | 12187 ft | 347 kts | 226° |
| 2026-05-06 11:44 | 55.50529 | 12.75208 | 12888 ft | 350 kts | 229° |
| 2026-05-06 11:44 | 55.48925 | 12.71947 | 13601 ft | 354 kts | 230° |
| 2026-05-06 11:44 | 55.47349 | 12.68585 | 14248 ft | 357 kts | 231° |
| 2026-05-06 11:45 | 55.45769 | 12.65182 | 14870 ft | 360 kts | 231° |
| 2026-05-06 11:45 | 55.44172 | 12.61758 | 15484 ft | 364 kts | 231° |
| 2026-05-06 11:45 | 55.42549 | 12.58308 | 16083 ft | 368 kts | 231° |
| 2026-05-06 11:45 | 55.40899 | 12.54837 | 16677 ft | 371 kts | 230° |
| 2026-05-06 11:46 | 55.39254 | 12.51396 | 17273 ft | 374 kts | 230° |
| 2026-05-06 11:46 | 55.37570 | 12.47885 | 17851 ft | 377 kts | 230° |
| 2026-05-06 11:46 | 55.35869 | 12.44347 | 18390 ft | 381 kts | 230° |
| 2026-05-06 11:46 | 55.34151 | 12.40778 | 18895 ft | 383 kts | 230° |
| 2026-05-06 11:47 | 55.32422 | 12.37190 | 19405 ft | 386 kts | 230° |
| 2026-05-06 11:47 | 55.30683 | 12.33594 | 19932 ft | 387 kts | 230° |
| 2026-05-06 11:47 | 55.28933 | 12.29981 | 20452 ft | 389 kts | 230° |
| 2026-05-06 11:47 | 55.27172 | 12.26352 | 20979 ft | 391 kts | 230° |
| 2026-05-06 11:48 | 55.25406 | 12.22719 | 21504 ft | 393 kts | 230° |
| 2026-05-06 11:48 | 55.23627 | 12.19066 | 22034 ft | 394 kts | 230° |
| 2026-05-06 11:48 | 55.21849 | 12.15414 | 22619 ft | 394 kts | 230° |
| 2026-05-06 11:48 | 55.19956 | 12.11940 | 23140 ft | 396 kts | 222° |
| 2026-05-06 11:49 | 55.17768 | 12.08974 | 23598 ft | 399 kts | 217° |
| 2026-05-06 11:49 | 55.15518 | 12.06099 | 23974 ft | 402 kts | 217° |
| 2026-05-06 11:49 | 55.13255 | 12.03212 | 24369 ft | 404 kts | 217° |
| 2026-05-06 11:49 | 55.11006 | 12.00347 | 24752 ft | 406 kts | 217° |
| 2026-05-06 11:50 | 55.08688 | 11.97395 | 25152 ft | 407 kts | 217° |
| 2026-05-06 11:50 | 55.06423 | 11.94517 | 25538 ft | 409 kts | 216° |
| 2026-05-06 11:50 | 55.04109 | 11.91581 | 25934 ft | 411 kts | 216° |
| 2026-05-06 11:50 | 55.01795 | 11.88644 | 26337 ft | 413 kts | 216° |
| 2026-05-06 11:51 | 54.99465 | 11.85691 | 26704 ft | 415 kts | 216° |
| 2026-05-06 11:51 | 54.97127 | 11.82730 | 27070 ft | 417 kts | 216° |
| 2026-05-06 11:51 | 54.94776 | 11.79754 | 27428 ft | 419 kts | 216° |
| 2026-05-06 11:51 | 54.92406 | 11.76756 | 27679 ft | 423 kts | 216° |
| 2026-05-06 11:52 | 54.90013 | 11.73740 | 27799 ft | 426 kts | 212° |
| 2026-05-06 11:52 | 54.87894 | 11.69766 | 25428 ft | 481 kts | 232° |
| 2026-05-06 11:52 | 54.85794 | 11.65758 | 26952 ft | 448 kts | 221° |
| 2026-05-06 11:52 | 54.83254 | 11.62591 | 27975 ft | 435 kts | 211° |
| 2026-05-06 11:53 | 54.80605 | 11.60090 | 28567 ft | 432 kts | 207° |
| 2026-05-06 11:53 | 54.77933 | 11.57730 | 28981 ft | 432 kts | 207° |
| 2026-05-06 11:53 | 54.75287 | 11.55209 | 29352 ft | 434 kts | 210° |
| 2026-05-06 11:53 | 54.72753 | 11.52480 | 29697 ft | 435 kts | 213° |
| 2026-05-06 11:54 | 54.70262 | 11.49499 | 30085 ft | 435 kts | 215° |
| 2026-05-06 11:54 | 54.67830 | 11.46384 | 30422 ft | 435 kts | 216° |
| 2026-05-06 11:54 | 54.65417 | 11.43224 | 30811 ft | 435 kts | 216° |
| 2026-05-06 11:54 | 54.63004 | 11.40081 | 31209 ft | 433 kts | 216° |
| 2026-05-06 11:55 | 54.60586 | 11.36992 | 31614 ft | 432 kts | 215° |
| 2026-05-06 11:55 | 54.58156 | 11.33947 | 32106 ft | 429 kts | 214° |
| 2026-05-06 11:55 | 54.55746 | 11.30970 | 32636 ft | 424 kts | 214° |
| 2026-05-06 11:55 | 54.53345 | 11.28044 | 33120 ft | 422 kts | 213° |
| 2026-05-06 11:56 | 54.50949 | 11.25151 | 33546 ft | 420 kts | 213° |
| 2026-05-06 11:56 | 54.48562 | 11.22279 | 33940 ft | 418 kts | 213° |
| 2026-05-06 11:56 | 54.46171 | 11.19399 | 34217 ft | 419 kts | 213° |
| 2026-05-06 11:56 | 54.43784 | 11.16514 | 34473 ft | 420 kts | 213° |
| 2026-05-06 11:57 | 54.41393 | 11.13620 | 34735 ft | 420 kts | 214° |
| 2026-05-06 11:57 | 54.38999 | 11.10723 | 35006 ft | 420 kts | 214° |
| 2026-05-06 11:57 | 54.36609 | 11.07833 | 35285 ft | 420 kts | 214° |
| 2026-05-06 11:57 | 54.34213 | 11.04940 | 35549 ft | 421 kts | 214° |
| 2026-05-06 11:58 | 54.31820 | 11.02057 | 35794 ft | 421 kts | 214° |
| 2026-05-06 11:58 | 54.29432 | 10.99261 | 35874 ft | 420 kts | 212° |
| 2026-05-06 11:58 | 54.24461 | 10.94066 | 35875 ft | 418 kts | 210° |
| 2026-05-06 11:59 | 54.19405 | 10.89126 | 35882 ft | 419 kts | 209° |
| 2026-05-06 11:59 | 54.14360 | 10.84146 | 35876 ft | 419 kts | 210° |
| 2026-05-06 12:00 | 54.09342 | 10.79104 | 35883 ft | 419 kts | 210° |
| 2026-05-06 12:00 | 54.04331 | 10.74033 | 35885 ft | 419 kts | 210° |
| 2026-05-06 12:01 | 53.99312 | 10.68988 | 35880 ft | 419 kts | 210° |
| 2026-05-06 12:01 | 53.94282 | 10.63958 | 35882 ft | 420 kts | 210° |
| 2026-05-06 12:02 | 53.89239 | 10.58947 | 35883 ft | 420 kts | 210° |
| 2026-05-06 12:02 | 53.84200 | 10.53938 | 35887 ft | 420 kts | 210° |
| 2026-05-06 12:03 | 53.79150 | 10.48935 | 35901 ft | 420 kts | 210° |
| 2026-05-06 12:03 | 53.74096 | 10.43942 | 35879 ft | 421 kts | 210° |
| 2026-05-06 12:04 | 53.69033 | 10.38948 | 35873 ft | 422 kts | 210° |
| 2026-05-06 12:04 | 53.63961 | 10.33974 | 35867 ft | 422 kts | 210° |
| 2026-05-06 12:05 | 53.58885 | 10.29004 | 35861 ft | 422 kts | 210° |
| 2026-05-06 12:05 | 53.53844 | 10.24072 | 35854 ft | 422 kts | 210° |
| 2026-05-06 12:06 | 53.48759 | 10.19114 | 35855 ft | 423 kts | 210° |
| 2026-05-06 12:06 | 53.43662 | 10.14170 | 35847 ft | 423 kts | 210° |
| 2026-05-06 12:07 | 53.38564 | 10.09228 | 35859 ft | 423 kts | 210° |
| 2026-05-06 12:07 | 53.33464 | 10.04298 | 35846 ft | 423 kts | 210° |
| 2026-05-06 12:08 | 53.28365 | 9.99386 | 35846 ft | 423 kts | 210° |
| 2026-05-06 12:08 | 53.23254 | 9.94483 | 35845 ft | 423 kts | 210° |
| 2026-05-06 12:09 | 53.18143 | 9.89581 | 35849 ft | 423 kts | 210° |
| 2026-05-06 12:09 | 53.13028 | 9.84699 | 35848 ft | 423 kts | 210° |
| 2026-05-06 12:10 | 53.07939 | 9.79855 | 35857 ft | 424 kts | 210° |
| 2026-05-06 12:10 | 53.02822 | 9.74987 | 35852 ft | 424 kts | 210° |
| 2026-05-06 12:11 | 52.97704 | 9.70132 | 35856 ft | 424 kts | 210° |
| 2026-05-06 12:11 | 52.92575 | 9.65283 | 35849 ft | 424 kts | 210° |
| 2026-05-06 12:12 | 52.87452 | 9.60453 | 35851 ft | 424 kts | 210° |
| 2026-05-06 12:12 | 52.82326 | 9.55646 | 35843 ft | 424 kts | 210° |
| 2026-05-06 12:13 | 52.77192 | 9.50837 | 35844 ft | 423 kts | 210° |
| 2026-05-06 12:13 | 52.72098 | 9.46069 | 35853 ft | 423 kts | 210° |
| 2026-05-06 12:14 | 52.66979 | 9.41305 | 35854 ft | 423 kts | 210° |
| 2026-05-06 12:14 | 52.61844 | 9.36507 | 35837 ft | 423 kts | 211° |
| 2026-05-06 12:15 | 52.56903 | 9.31246 | 35837 ft | 424 kts | 214° |
| 2026-05-06 12:15 | 52.52065 | 9.25691 | 35839 ft | 424 kts | 215° |
| 2026-05-06 12:16 | 52.47201 | 9.20208 | 35827 ft | 424 kts | 214° |
| 2026-05-06 12:16 | 52.42297 | 9.14829 | 35823 ft | 423 kts | 213° |
| 2026-05-06 12:17 | 52.37394 | 9.09488 | 35805 ft | 424 kts | 214° |
| 2026-05-06 12:17 | 52.32477 | 9.04136 | 35809 ft | 424 kts | 214° |
| 2026-05-06 12:18 | 52.27562 | 8.98794 | 35817 ft | 425 kts | 214° |
| 2026-05-06 12:18 | 52.22637 | 8.93459 | 35822 ft | 424 kts | 214° |
| 2026-05-06 12:19 | 52.17722 | 8.88120 | 35824 ft | 424 kts | 214° |
| 2026-05-06 12:19 | 52.12826 | 8.82836 | 35823 ft | 425 kts | 214° |
| 2026-05-06 12:20 | 52.07894 | 8.77530 | 35821 ft | 425 kts | 214° |
| 2026-05-06 12:20 | 52.02956 | 8.72239 | 35824 ft | 425 kts | 214° |
| 2026-05-06 12:21 | 51.98622 | 8.65769 | 35825 ft | 425 kts | 233° |
| 2026-05-06 12:21 | 51.95879 | 8.57292 | 35826 ft | 427 kts | 247° |
| 2026-05-06 12:22 | 51.93679 | 8.48362 | 35828 ft | 427 kts | 246° |
| 2026-05-06 12:22 | 51.91456 | 8.39438 | 35836 ft | 427 kts | 246° |
| 2026-05-06 12:23 | 51.89238 | 8.30579 | 35842 ft | 427 kts | 246° |
| 2026-05-06 12:23 | 51.86998 | 8.21665 | 35828 ft | 428 kts | 246° |
| 2026-05-06 12:24 | 51.84749 | 8.12754 | 35831 ft | 428 kts | 246° |
| 2026-05-06 12:24 | 51.82492 | 8.03827 | 35835 ft | 429 kts | 246° |
| 2026-05-06 12:25 | 51.80228 | 7.94907 | 35835 ft | 429 kts | 246° |
| 2026-05-06 12:25 | 51.78346 | 7.87496 | 35840 ft | 429 kts | 246° |
| 2026-05-06 12:26 | 51.76072 | 7.78585 | 35844 ft | 429 kts | 246° |
| 2026-05-06 12:26 | 51.74929 | 7.74127 | 35620 ft | 430 kts | 246° |
| 2026-05-06 12:26 | 51.73767 | 7.69616 | 34549 ft | 439 kts | 246° |
| 2026-05-06 12:27 | 51.72590 | 7.65051 | 32956 ft | 442 kts | 246° |
| 2026-05-06 12:27 | 51.71489 | 7.60387 | 31013 ft | 450 kts | 253° |
| 2026-05-06 12:27 | 51.70817 | 7.55386 | 28954 ft | 461 kts | 264° |
| 2026-05-06 12:27 | 51.70582 | 7.50250 | 27294 ft | 457 kts | 266° |
| 2026-05-06 12:28 | 51.70358 | 7.45189 | 25935 ft | 447 kts | 265° |
| 2026-05-06 12:28 | 51.70122 | 7.40378 | 25363 ft | 421 kts | 265° |
| 2026-05-06 12:28 | 51.69890 | 7.35813 | 24867 ft | 397 kts | 265° |
| 2026-05-06 12:28 | 51.69663 | 7.31401 | 24328 ft | 394 kts | 264° |
| 2026-05-06 12:29 | 51.69440 | 7.27012 | 23794 ft | 392 kts | 264° |
| 2026-05-06 12:29 | 51.69220 | 7.22648 | 23254 ft | 389 kts | 265° |
| 2026-05-06 12:29 | 51.69004 | 7.18322 | 22708 ft | 384 kts | 264° |
| 2026-05-06 12:29 | 51.68791 | 7.14055 | 22235 ft | 379 kts | 264° |
| 2026-05-06 12:30 | 51.68581 | 7.09861 | 21775 ft | 373 kts | 264° |
| 2026-05-06 12:30 | 51.68372 | 7.05720 | 21330 ft | 368 kts | 265° |
| 2026-05-06 12:30 | 51.68163 | 7.01622 | 20910 ft | 365 kts | 264° |
| 2026-05-06 12:30 | 51.67955 | 6.97561 | 20488 ft | 363 kts | 264° |
| 2026-05-06 12:31 | 51.67744 | 6.93514 | 20060 ft | 360 kts | 264° |
| 2026-05-06 12:31 | 51.67533 | 6.89498 | 19641 ft | 358 kts | 265° |
| 2026-05-06 12:31 | 51.67327 | 6.85557 | 19223 ft | 357 kts | 265° |
| 2026-05-06 12:31 | 51.67115 | 6.81570 | 18800 ft | 355 kts | 264° |
| 2026-05-06 12:32 | 51.66903 | 6.77615 | 18378 ft | 353 kts | 265° |
| 2026-05-06 12:32 | 51.66691 | 6.73674 | 17914 ft | 353 kts | 265° |
| 2026-05-06 12:32 | 51.66479 | 6.69741 | 17464 ft | 352 kts | 265° |
| 2026-05-06 12:32 | 51.66268 | 6.65820 | 17022 ft | 351 kts | 265° |
| 2026-05-06 12:33 | 51.66055 | 6.61907 | 16572 ft | 350 kts | 265° |
| 2026-05-06 12:33 | 51.65839 | 6.58009 | 16115 ft | 348 kts | 265° |
| 2026-05-06 12:33 | 51.65623 | 6.54132 | 15675 ft | 348 kts | 265° |
| 2026-05-06 12:33 | 51.65407 | 6.50249 | 15227 ft | 349 kts | 265° |
| 2026-05-06 12:34 | 51.65189 | 6.46345 | 14766 ft | 351 kts | 265° |
| 2026-05-06 12:34 | 51.64967 | 6.42399 | 14304 ft | 355 kts | 265° |
| 2026-05-06 12:34 | 51.64741 | 6.38415 | 13830 ft | 358 kts | 265° |
| 2026-05-06 12:34 | 51.64516 | 6.34397 | 13311 ft | 362 kts | 265° |
| 2026-05-06 12:35 | 51.64288 | 6.30378 | 12830 ft | 359 kts | 266° |
| 2026-05-06 12:35 | 51.64059 | 6.26406 | 12336 ft | 354 kts | 266° |
| 2026-05-06 12:35 | 51.63829 | 6.22483 | 11855 ft | 350 kts | 266° |
| 2026-05-06 12:35 | 51.63599 | 6.18601 | 11372 ft | 347 kts | 266° |
| 2026-05-06 12:36 | 51.63370 | 6.14749 | 10884 ft | 344 kts | 266° |
| 2026-05-06 12:36 | 51.63099 | 6.10991 | 10468 ft | 342 kts | 261° |
| 2026-05-06 12:36 | 51.62420 | 6.07333 | 10339 ft | 332 kts | 252° |
| 2026-05-06 12:36 | 51.61645 | 6.03957 | 10214 ft | 320 kts | 252° |
| 2026-05-06 12:37 | 51.60894 | 6.00659 | 10091 ft | 308 kts | 252° |
| 2026-05-06 12:37 | 51.60174 | 5.97479 | 9957 ft | 298 kts | 253° |
| 2026-05-06 12:37 | 51.59473 | 5.94378 | 9743 ft | 291 kts | 253° |
| 2026-05-06 12:37 | 51.58780 | 5.91329 | 9455 ft | 290 kts | 253° |
| 2026-05-06 12:38 | 51.58088 | 5.88296 | 9072 ft | 288 kts | 252° |
| 2026-05-06 12:38 | 51.57398 | 5.85283 | 8696 ft | 287 kts | 252° |
| 2026-05-06 12:38 | 51.56710 | 5.82282 | 8315 ft | 285 kts | 252° |
| 2026-05-06 12:38 | 51.56026 | 5.79304 | 7936 ft | 284 kts | 252° |
| 2026-05-06 12:39 | 51.55341 | 5.76330 | 7556 ft | 283 kts | 252° |
| 2026-05-06 12:39 | 51.54655 | 5.73357 | 7187 ft | 282 kts | 252° |
| 2026-05-06 12:39 | 51.53975 | 5.70406 | 6816 ft | 281 kts | 252° |
| 2026-05-06 12:39 | 51.53297 | 5.67473 | 6445 ft | 279 kts | 252° |
| 2026-05-06 12:40 | 51.52623 | 5.64559 | 6060 ft | 278 kts | 252° |
| 2026-05-06 12:40 | 51.51952 | 5.61655 | 5704 ft | 276 kts | 252° |
| 2026-05-06 12:40 | 51.51284 | 5.58767 | 5341 ft | 276 kts | 253° |
| 2026-05-06 12:40 | 51.50615 | 5.55882 | 4979 ft | 275 kts | 252° |
| 2026-05-06 12:41 | 51.49945 | 5.53000 | 4606 ft | 275 kts | 252° |
| 2026-05-06 12:41 | 51.49277 | 5.50131 | 4235 ft | 274 kts | 252° |
| 2026-05-06 12:41 | 51.48611 | 5.47276 | 3874 ft | 272 kts | 252° |
| 2026-05-06 12:41 | 51.47948 | 5.44435 | 3512 ft | 272 kts | 252° |
| 2026-05-06 12:42 | 51.47282 | 5.41597 | 3153 ft | 272 kts | 252° |
| 2026-05-06 12:42 | 51.46720 | 5.38736 | 2913 ft | 264 kts | 263° |
| 2026-05-06 12:42 | 51.46438 | 5.35848 | 2946 ft | 267 kts | 264° |
| 2026-05-06 12:42 | 51.46140 | 5.32900 | 2951 ft | 268 kts | 264° |
| 2026-05-06 12:43 | 51.45833 | 5.29951 | 2952 ft | 267 kts | 264° |
| 2026-05-06 12:43 | 51.45529 | 5.27019 | 2951 ft | 267 kts | 263° |
| 2026-05-06 12:43 | 51.45184 | 5.24101 | 2950 ft | 267 kts | 256° |
| 2026-05-06 12:43 | 51.44406 | 5.21379 | 2953 ft | 271 kts | 238° |
| 2026-05-06 12:44 | 51.43146 | 5.19135 | 2947 ft | 272 kts | 220° |
| 2026-05-06 12:44 | 51.41593 | 5.17386 | 2953 ft | 273 kts | 215° |
| 2026-05-06 12:44 | 51.39944 | 5.15893 | 2946 ft | 272 kts | 197° |
| 2026-05-06 12:44 | 51.38168 | 5.15738 | 2950 ft | 241 kts | 166° |
| 2026-05-06 12:45 | 51.36742 | 5.16774 | 2833 ft | 212 kts | 140° |
| 2026-05-06 12:45 | 51.35781 | 5.18331 | 2698 ft | 185 kts | 122° |
| 2026-05-06 12:45 | 51.34955 | 5.21799 | 2492 ft | 157 kts | 90° |
| 2026-05-06 12:46 | 51.34970 | 5.23456 | 2410 ft | 143 kts | 77° |
| 2026-05-06 12:46 | 51.35204 | 5.24972 | 2297 ft | 138 kts | 65° |
| 2026-05-06 12:46 | 51.35623 | 5.26320 | 2180 ft | 134 kts | 54° |
| 2026-05-06 12:46 | 51.36204 | 5.27474 | 2033 ft | 133 kts | 41° |
| 2026-05-06 12:47 | 51.36918 | 5.28403 | 1865 ft | 132 kts | 31° |
| 2026-05-06 12:47 | 51.37674 | 5.29246 | 1697 ft | 133 kts | 33° |
| 2026-05-06 12:47 | 51.38435 | 5.30095 | 1509 ft | 133 kts | 32° |
| 2026-05-06 12:47 | 51.39185 | 5.30933 | 1330 ft | 133 kts | 32° |
| 2026-05-06 12:48 | 51.39944 | 5.31780 | 1137 ft | 132 kts | 34° |
| 2026-05-06 12:48 | 51.40698 | 5.32623 | 958 ft | 132 kts | 33° |
| 2026-05-06 12:48 | 51.41453 | 5.33468 | 782 ft | 133 kts | 33° |
| 2026-05-06 12:48 | 51.42219 | 5.34323 | 609 ft | 137 kts | 33° |
| 2026-05-06 12:49 | 51.43001 | 5.35195 | 373 ft | 135 kts | 33° |
| 2026-05-06 12:49 | 51.43769 | 5.36058 | 165 ft | 134 kts | 33° |
| 2026-05-06 12:49 | 51.44490 | 5.36861 | 68 ft | 117 kts | 31° |
| 2026-05-06 12:49 | 51.45038 | 5.37469 | 72 ft | 68 kts | 34° |
| 2026-05-06 12:50 | 51.45317 | 5.37787 | 73 ft | 39 kts | 35° |
| 2026-05-06 12:50 | 51.45526 | 5.38018 | 71 ft | 28 kts | 34° |
| 2026-05-06 12:50 | 51.45682 | 5.38199 | 69 ft | 27 kts | 35° |
| 2026-05-06 12:50 | 51.45831 | 5.38366 | 75 ft | 25 kts | 36° |
| 2026-05-06 12:51 | 51.45905 | 5.38453 | 72 ft | 8 kts | 48° |
| 2026-05-06 12:51 | 51.45896 | 5.38532 | 67 ft | 8 kts | 119° |
| 2026-05-06 12:51 | 51.45865 | 5.38610 | 70 ft | 9 kts | 124° |
| 2026-05-06 12:51 | 51.45829 | 5.38692 | 64 ft | 9 kts | 126° |
| 2026-05-06 12:52 | 51.45796 | 5.38767 | 69 ft | 8 kts | 123° |
| 2026-05-06 12:52 | 51.45802 | 5.38841 | 67 ft | 7 kts | 52° |
| 2026-05-06 12:52 | 51.45840 | 5.38887 | 64 ft | 7 kts | 34° |
| 2026-05-06 12:52 | 51.45878 | 5.38930 | 70 ft | 6 kts | 35° |
| 2026-05-06 12:53 | 51.45890 | 5.38956 | 69 ft | 2 kts | 74° |
| 2026-05-06 12:53 | 51.45885 | 5.38983 | 70 ft | 3 kts | 114° |
| 2026-05-06 12:53 | 51.45876 | 5.39007 | 75 ft | 2 kts | 120° |
| 2026-05-06 12:53 | 51.45868 | 5.39026 | 70 ft | 2 kts | 122° |
| 2026-05-06 12:54 | 51.45863 | 5.39039 | 64 ft | 1 kts | 124° |
| 2026-05-06 12:54 | 51.45860 | 5.39046 | 64 ft | 0 kts | 124° |
| 2026-05-06 12:54 | 51.45858 | 5.39050 | 64 ft | 0 kts | 124° |
| 2026-05-06 12:54 | 51.45857 | 5.39053 | 64 ft | 1 kts | 124° |
| 2026-05-06 12:55 | 51.45856 | 5.39054 | 64 ft | 0 kts | 124° |